Time;durP1;ratioP1;P1;durP2;ratioP2;P2;SDS_P1;SDS_P2;PMS_P1;PMS_P2;Temp;Humidity;BMP_temperature;BMP_pressure;BME280_temperature;BME280_humidity;BME280_pressure;Samples;Min_cycle;Max_cycle;Signal;HPM_P1;HPM_P2
2021/03/02 00:00:13;;;;;;;54.40;29.08;;;;;;;7.28;82.48;101916.44;5071202;28;20017;-85
2021/03/02 00:02:41;;;;;;;65.40;31.98;;;;;;;7.14;83.04;101920.31;5071119;28;20540;-85
2021/03/02 00:05:08;;;;;;;62.05;31.45;;;;;;;7.26;82.54;101913.03;5071384;28;20024;-85
2021/03/02 00:07:34;;;;;;;59.15;29.70;;;;;;;7.37;82.51;101908.34;5071242;28;20032;-85
2021/03/02 00:10:00;;;;;;;70.80;33.55;;;;;;;7.38;81.91;101906.56;5074323;28;20475;-85
2021/03/02 00:12:26;;;;;;;72.22;34.58;;;;;;;7.38;82.36;101917.03;5074880;28;20039;-85
2021/03/02 00:14:51;;;;;;;67.95;33.40;;;;;;;7.29;82.00;101926.84;5074881;28;20028;-85
2021/03/02 00:17:51;;;;;;;60.00;31.35;;;;;;;7.37;81.89;101916.19;5075031;28;20428;-85
2021/03/02 00:20:23;;;;;;;62.63;31.35;;;;;;;7.15;82.98;101922.03;5072228;28;20124;-85
2021/03/02 00:22:57;;;;;;;72.28;32.70;;;;;;;7.09;82.92;101922.22;5074538;28;20041;-85
2021/03/02 00:25:28;;;;;;;67.10;32.75;;;;;;;7.38;81.37;101925.72;5074580;28;20077;-85
2021/03/02 00:27:55;;;;;;;71.80;33.85;;;;;;;7.23;80.93;101924.44;5074449;28;20021;-85
2021/03/02 00:30:21;;;;;;;67.00;32.17;;;;;;;7.39;80.78;101926.59;5073481;28;20390;-85
2021/03/02 00:32:47;;;;;;;62.45;31.33;;;;;;;7.39;80.34;101923.97;5074631;28;20031;-85
2021/03/02 00:35:16;;;;;;;62.08;29.10;;;;;;;7.36;80.94;101919.66;5074738;28;20020;-85
2021/03/02 00:37:43;;;;;;;69.57;32.55;;;;;;;7.30;80.96;101920.72;5074532;28;20017;-85
2021/03/02 00:40:09;;;;;;;67.13;32.85;;;;;;;7.23;81.09;101910.53;5074645;28;20098;-85
2021/03/02 00:42:35;;;;;;;70.80;34.97;;;;;;;7.09;81.66;101911.78;5074311;28;20056;-85
2021/03/02 00:45:00;;;;;;;78.57;35.40;;;;;;;7.17;81.77;101913.28;5074279;28;20028;-85
2021/03/02 00:47:25;;;;;;;65.97;32.42;;;;;;;7.22;81.10;101908.78;5074191;28;20020;-85
2021/03/02 00:49:51;;;;;;;74.82;33.10;;;;;;;7.12;81.25;101902.97;5074248;28;20020;-85
2021/03/02 00:52:17;;;;;;;76.05;35.20;;;;;;;7.00;82.06;101901.59;5074149;28;20028;-85
2021/03/02 00:54:42;;;;;;;74.90;36.55;;;;;;;7.08;82.24;101899.59;5074192;28;20021;-85
2021/03/02 00:57:07;;;;;;;74.30;35.05;;;;;;;7.22;81.63;101907.03;5074130;28;20047;-85
2021/03/02 00:59:33;;;;;;;72.13;35.63;;;;;;;7.12;81.68;101898.59;5074577;28;20020;-85
2021/03/02 01:01:58;;;;;;;76.63;36.42;;;;;;;7.09;81.75;101898.72;5073849;28;20372;-85
2021/03/02 01:04:23;;;;;;;79.25;36.63;;;;;;;7.21;82.18;101909.69;5074042;28;20021;-85
2021/03/02 01:06:49;;;;;;;69.45;32.92;;;;;;;7.14;81.54;101912.47;5074037;28;20290;-85
2021/03/02 01:09:14;;;;;;;72.28;35.65;;;;;;;7.23;81.44;101915.75;5073818;28;20108;-85
2021/03/02 01:11:40;;;;;;;65.43;33.72;;;;;;;7.24;80.51;101923.50;5073904;28;20486;-85
2021/03/02 01:14:05;;;;;;;83.43;36.33;;;;;;;7.22;82.02;101922.69;5074192;28;20058;-85
2021/03/02 01:16:30;;;;;;;81.47;36.45;;;;;;;7.28;81.29;101921.66;5073760;28;20032;-85
2021/03/02 01:18:56;;;;;;;75.63;35.22;;;;;;;7.13;81.72;101917.78;5074109;28;20116;-85
2021/03/02 01:21:21;;;;;;;74.70;37.88;;;;;;;7.04;82.01;101908.44;5073723;28;20103;-85
2021/03/02 01:23:47;;;;;;;71.68;33.92;;;;;;;7.24;81.35;101915.69;5072031;28;20115;-85
2021/03/02 01:26:12;;;;;;;75.90;35.35;;;;;;;7.27;81.41;101925.19;5073471;28;20024;-85
2021/03/02 01:28:38;;;;;;;73.68;34.47;;;;;;;7.23;81.35;101923.56;5073345;28;20032;-85
2021/03/02 01:31:04;;;;;;;70.75;34.85;;;;;;;7.29;81.19;101923.41;5073589;28;20052;-85
2021/03/02 01:33:29;;;;;;;83.20;37.20;;;;;;;7.28;81.66;101924.28;5073466;28;20591;-85
2021/03/02 01:35:54;;;;;;;78.82;36.05;;;;;;;7.27;81.14;101919.97;5073336;28;20025;-85
2021/03/02 01:38:20;;;;;;;74.15;35.42;;;;;;;7.35;81.32;101924.06;5073276;28;20028;-85
2021/03/02 01:40:45;;;;;;;75.90;36.63;;;;;;;7.40;81.14;101923.06;5073234;28;20024;-85
2021/03/02 01:43:13;;;;;;;81.07;34.85;;;;;;;7.40;81.27;101923.06;5072058;28;20107;-86
2021/03/02 01:45:38;;;;;;;75.85;35.88;;;;;;;7.35;80.60;101907.53;5073147;28;20518;-85
2021/03/02 01:48:04;;;;;;;70.55;34.17;;;;;;;7.40;81.40;101910.84;5073111;28;20158;-85
2021/03/02 01:50:30;;;;;;;84.22;37.88;;;;;;;7.24;81.69;101905.22;5073099;28;20396;-86
2021/03/02 01:52:55;;;;;;;84.03;38.20;;;;;;;7.18;81.84;101928.06;5073175;28;20134;-85
2021/03/02 01:55:21;;;;;;;82.03;39.25;;;;;;;7.12;83.12;101909.06;5073142;28;20462;-85
2021/03/02 01:57:46;;;;;;;77.18;36.17;;;;;;;7.42;81.90;101903.81;5073649;28;20021;-85
2021/03/02 02:00:14;;;;;;;79.97;38.58;;;;;;;7.46;80.86;101894.97;5072845;28;20029;-85
2021/03/02 02:03:06;;;;;;;86.93;40.35;;;;;;;7.36;82.02;101893.53;5072742;28;20054;-85
2021/03/02 02:05:36;;;;;;;75.13;36.97;;;;;;;7.49;81.58;101892.28;5072819;28;20401;-85
2021/03/02 02:08:06;;;;;;;85.72;40.53;;;;;;;7.53;81.27;101888.66;5072560;28;20029;-85
2021/03/02 02:10:47;;;;;;;72.55;37.50;;;;;;;7.59;81.38;101889.38;5072815;28;20405;-85
2021/03/02 02:13:22;;;;;;;73.95;37.30;;;;;;;7.61;80.66;101896.25;5072555;28;20025;-85
2021/03/02 02:15:49;;;;;;;80.88;38.45;;;;;;;7.62;81.07;101889.25;5072617;28;20039;-85
2021/03/02 02:18:23;;;;;;;79.55;35.63;;;;;;;7.70;80.51;101892.47;5072326;28;20030;-84
2021/03/02 02:21:07;;;;;;;77.97;36.25;;;;;;;7.71;80.93;101900.28;5072301;28;20032;-85
2021/03/02 02:23:48;;;;;;;78.78;36.40;;;;;;;6.87;83.32;101885.44;5072068;28;20033;-84
2021/03/02 02:26:43;;;;;;;75.03;38.80;;;;;;;6.76;84.73;101895.31;5072376;28;20378;-84
2021/03/02 02:29:10;;;;;;;77.75;36.45;;;;;;;6.86;85.05;101888.06;5072126;28;20489;-84
2021/03/02 02:31:38;;;;;;;79.15;38.15;;;;;;;6.78;84.91;101888.28;5071713;28;20470;-84
2021/03/02 02:34:04;;;;;;;69.72;36.58;;;;;;;6.75;84.89;101885.75;5072733;28;20376;-84
2021/03/02 02:36:31;;;;;;;81.55;38.05;;;;;;;6.99;84.77;101894.66;5072070;28;20020;-84
2021/03/02 02:38:59;;;;;;;87.13;39.03;;;;;;;6.83;85.05;101883.81;5072102;28;20086;-84
2021/03/02 02:41:27;;;;;;;70.05;35.72;;;;;;;6.85;84.66;101874.19;5072222;28;20024;-84
2021/03/02 02:43:54;;;;;;;80.82;37.78;;;;;;;6.64;84.48;101882.63;5071914;28;20029;-84
2021/03/02 02:46:20;;;;;;;73.20;36.42;;;;;;;6.65;84.30;101887.78;5072010;28;20363;-85
2021/03/02 02:48:48;;;;;;;69.07;35.75;;;;;;;6.69;83.61;101885.94;5071747;28;20024;-84
2021/03/02 02:51:14;;;;;;;74.68;36.97;;;;;;;6.79;83.85;101882.16;5071995;28;20534;-84
2021/03/02 02:53:41;;;;;;;74.43;37.22;;;;;;;6.72;83.84;101891.09;5072067;28;20301;-84
2021/03/02 02:56:07;;;;;;;76.00;36.88;;;;;;;6.67;84.43;101883.34;5071857;28;20032;-84
2021/03/02 02:58:45;;;;;;;82.07;38.08;;;;;;;6.61;85.36;101888.75;5072322;28;20021;-83
2021/03/02 03:01:12;;;;;;;68.50;34.63;;;;;;;6.78;84.45;101884.84;5071678;28;20104;-84
2021/03/02 03:03:44;;;;;;;69.93;35.92;;;;;;;6.77;84.64;101877.88;5071737;28;20024;-84
2021/03/02 03:06:12;;;;;;;63.90;34.10;;;;;;;6.70;84.28;101867.63;5070472;28;20029;-83
2021/03/02 03:08:46;;;;;;;74.55;37.17;;;;;;;6.57;84.16;101879.28;5071693;28;20063;-84
2021/03/02 03:11:13;;;;;;;72.47;37.35;;;;;;;6.59;84.58;101874.88;5071587;28;20025;-84
2021/03/02 03:13:42;;;;;;;70.90;37.15;;;;;;;6.58;84.23;101872.34;5071610;28;20078;-85
2021/03/02 03:16:10;;;;;;;72.93;37.40;;;;;;;6.55;84.28;101866.28;5071662;28;20028;-85
2021/03/02 03:18:46;;;;;;;77.82;36.33;;;;;;;6.50;85.48;101865.56;5071838;28;20038;-85
2021/03/02 03:21:13;;;;;;;69.35;35.20;;;;;;;6.58;84.96;101865.38;5071641;28;20046;-85
2021/03/02 03:23:39;;;;;;;75.28;36.88;;;;;;;6.62;84.41;101847.88;5070245;28;20038;-85
2021/03/02 03:26:06;;;;;;;74.15;36.97;;;;;;;6.65;84.82;101842.56;5071457;28;20153;-85
2021/03/02 03:28:32;;;;;;;74.57;36.55;;;;;;;6.66;84.42;101858.16;5071610;28;20074;-85
2021/03/02 03:31:00;;;;;;;66.95;34.25;;;;;;;6.53;84.08;101852.44;5071626;28;20025;-85
2021/03/02 03:33:26;;;;;;;70.70;35.88;;;;;;;6.62;84.17;101859.16;5071486;28;20093;-85
2021/03/02 03:35:51;;;;;;;66.80;34.67;;;;;;;6.67;84.55;101852.03;5071540;28;20024;-85
2021/03/02 03:38:17;;;;;;;70.85;36.10;;;;;;;6.68;84.50;101851.16;5070018;28;20020;-85
2021/03/02 03:40:42;;;;;;;74.43;38.67;;;;;;;6.56;85.17;101848.91;5071329;28;20026;-85
2021/03/02 03:43:08;;;;;;;72.03;36.05;;;;;;;6.52;85.06;101839.44;5071273;28;20536;-85
2021/03/02 03:45:33;;;;;;;79.13;36.55;;;;;;;6.47;85.15;101844.78;5075162;28;20040;-85
2021/03/02 03:47:58;;;;;;;70.00;36.63;;;;;;;6.64;84.45;101841.69;5075523;28;20052;-85
2021/03/02 03:50:24;;;;;;;77.88;37.03;;;;;;;6.65;84.29;101832.97;5075371;28;20028;-85
2021/03/02 03:52:56;;;;;;;75.32;37.35;;;;;;;6.72;84.60;101855.38;5075771;28;20466;-85
2021/03/02 03:55:25;;;;;;;71.45;37.22;;;;;;;6.73;84.50;101840.56;5075137;28;20109;-85
2021/03/02 03:57:52;;;;;;;77.75;39.00;;;;;;;6.60;85.20;101847.06;5075815;28;20026;-85
2021/03/02 04:00:18;;;;;;;73.78;37.15;;;;;;;6.69;84.75;101849.38;5073835;28;20070;-85
2021/03/02 04:02:44;;;;;;;81.72;38.60;;;;;;;6.50;84.86;101841.25;5075006;28;20479;-85
2021/03/02 04:05:11;;;;;;;74.03;35.88;;;;;;;6.57;84.83;101847.13;5075120;28;20383;-85
2021/03/02 04:07:36;;;;;;;74.35;37.15;;;;;;;6.64;84.75;101856.50;5074884;28;20092;-85
2021/03/02 04:10:05;;;;;;;75.63;37.03;;;;;;;6.69;84.34;101855.47;5074923;28;20120;-85
2021/03/02 04:12:37;;;;;;;72.05;36.33;;;;;;;6.73;83.55;101851.00;5074992;28;20115;-85
2021/03/02 04:15:08;;;;;;;72.88;36.97;;;;;;;6.74;84.10;101843.16;5074848;28;20024;-85
2021/03/02 04:17:33;;;;;;;81.47;38.80;;;;;;;6.50;84.59;101842.09;5074779;28;20038;-85
2021/03/02 04:19:59;;;;;;;75.07;38.85;;;;;;;6.60;84.50;101850.53;5074869;28;20020;-85
2021/03/02 04:22:25;;;;;;;82.88;38.83;;;;;;;6.52;84.67;101839.44;5074591;28;20036;-84
2021/03/02 04:24:50;;;;;;;76.93;39.50;;;;;;;6.66;83.87;101850.34;5074717;28;20439;-85
2021/03/02 04:27:15;;;;;;;77.20;37.55;;;;;;;6.69;84.23;101852.00;5074569;28;20028;-85
2021/03/02 04:29:41;;;;;;;82.57;37.78;;;;;;;6.78;83.43;101846.53;5073324;28;20086;-85
2021/03/02 04:32:06;;;;;;;79.82;38.50;;;;;;;6.81;83.47;101856.00;5074619;28;20033;-85
2021/03/02 04:34:31;;;;;;;69.40;36.53;;;;;;;6.68;83.67;101856.38;5074734;28;20024;-85
2021/03/02 04:36:57;;;;;;;81.25;38.08;;;;;;;6.55;84.30;101849.78;5074372;28;20017;-85
2021/03/02 04:39:22;;;;;;;67.20;34.92;;;;;;;6.72;83.30;101844.09;5073114;28;20056;-85
2021/03/02 04:41:47;;;;;;;74.70;36.50;;;;;;;6.52;83.86;101855.09;5074442;28;20029;-85
2021/03/02 04:44:12;;;;;;;77.47;37.28;;;;;;;6.56;83.98;101846.28;5074588;28;20032;-85
2021/03/02 04:46:38;;;;;;;80.82;39.25;;;;;;;6.70;84.32;101851.97;5074416;28;20025;-85
2021/03/02 04:49:03;;;;;;;83.68;39.03;;;;;;;6.67;83.78;101852.03;5074323;28;20119;-85
2021/03/02 04:51:28;;;;;;;84.15;38.30;;;;;;;6.50;84.60;101849.91;5074118;28;20032;-85
2021/03/02 04:53:54;;;;;;;81.28;38.85;;;;;;;6.68;84.14;101856.38;5074191;28;20032;-85
2021/03/02 04:56:19;;;;;;;76.68;37.35;;;;;;;6.66;83.97;101845.13;5073701;28;20099;-85
2021/03/02 04:58:44;;;;;;;78.60;37.97;;;;;;;6.60;83.99;101850.53;5074779;28;20028;-85
2021/03/02 05:01:10;;;;;;;85.15;40.30;;;;;;;6.66;83.79;101844.28;5074055;28;20035;-85
2021/03/02 05:03:35;;;;;;;78.70;37.72;;;;;;;6.73;83.40;101836.22;5073973;28;20051;-85
2021/03/02 05:06:00;;;;;;;85.68;39.45;;;;;;;6.65;84.53;101835.56;5074131;28;20024;-85
2021/03/02 05:08:26;;;;;;;78.18;36.90;;;;;;;6.72;84.22;101839.72;5073976;28;20028;-85
2021/03/02 05:10:51;;;;;;;71.95;36.13;;;;;;;6.86;83.17;101848.91;5073908;28;20021;-85
2021/03/02 05:13:16;;;;;;;70.35;35.58;;;;;;;6.76;82.98;101840.50;5074087;28;20051;-85
2021/03/02 05:15:42;;;;;;;71.93;34.33;;;;;;;6.71;83.56;101847.59;5073939;28;20362;-85
2021/03/02 05:18:07;;;;;;;76.18;37.03;;;;;;;6.65;83.01;101843.41;5073971;28;20029;-85
2021/03/02 05:20:33;;;;;;;79.68;38.17;;;;;;;6.58;83.33;101841.88;5073782;28;20105;-85
2021/03/02 05:22:58;;;;;;;80.00;37.67;;;;;;;6.23;85.22;101841.09;5073460;28;20396;-85
2021/03/02 05:25:23;;;;;;;84.57;37.88;;;;;;;6.48;83.69;101836.06;5073682;28;20028;-85
2021/03/02 05:27:49;;;;;;;75.88;36.13;;;;;;;6.70;82.86;101836.31;5073579;28;20111;-85
2021/03/02 05:30:15;;;;;;;80.80;37.47;;;;;;;6.73;82.88;101857.13;5073566;28;20064;-85
2021/03/02 05:32:40;;;;;;;82.82;38.20;;;;;;;6.67;83.56;101852.03;5073510;28;20074;-85
2021/03/02 05:35:06;;;;;;;73.35;34.53;;;;;;;6.66;83.53;101852.09;5073572;28;20025;-85
2021/03/02 05:37:31;;;;;;;72.78;36.42;;;;;;;6.50;83.21;101820.38;5072034;28;20025;-85
2021/03/02 05:39:57;;;;;;;80.57;37.95;;;;;;;6.36;84.16;101836.41;5073351;28;20395;-84
2021/03/02 05:42:22;;;;;;;86.13;38.65;;;;;;;6.42;84.56;101840.56;5073313;28;20506;-85
2021/03/02 05:44:48;;;;;;;78.90;37.75;;;;;;;6.31;84.45;101843.50;5073325;28;20031;-86
2021/03/02 05:47:14;;;;;;;70.28;35.88;;;;;;;6.54;84.43;101838.50;5073202;28;20095;-85
2021/03/02 05:49:41;;;;;;;86.50;38.08;;;;;;;6.64;84.11;101835.63;5072012;28;20032;-85
2021/03/02 05:52:06;;;;;;;80.70;40.63;;;;;;;6.66;83.62;101828.63;5073064;28;20372;-84
2021/03/02 05:54:32;;;;;;;73.97;36.97;;;;;;;6.65;83.97;101832.09;5073115;28;20023;-83
2021/03/02 05:56:57;;;;;;;83.80;38.50;;;;;;;6.72;83.75;101833.66;5073002;28;20033;-83
2021/03/02 05:59:22;;;;;;;75.55;36.15;;;;;;;6.63;83.85;101833.91;5073452;28;20029;-84
2021/03/02 06:01:48;;;;;;;67.63;34.08;;;;;;;6.75;83.64;101828.31;5072779;28;20054;-84
2021/03/02 06:04:16;;;;;;;75.70;35.80;;;;;;;6.68;83.82;101832.03;5071636;28;20044;-84
2021/03/02 06:06:42;;;;;;;73.00;36.67;;;;;;;6.72;83.44;101834.50;5072022;28;20016;-84
2021/03/02 06:09:07;;;;;;;69.78;35.03;;;;;;;6.64;84.38;101831.25;5072914;28;20382;-84
2021/03/02 06:11:35;;;;;;;66.03;34.65;;;;;;;6.76;83.54;101830.06;5072667;28;20431;-84
2021/03/02 06:14:22;;;;;;;74.65;37.28;;;;;;;6.72;84.57;101838.88;5072589;28;20024;-84
2021/03/02 06:16:50;;;;;;;77.90;37.17;;;;;;;6.48;83.75;101843.88;5072558;28;20506;-84
2021/03/02 06:19:15;;;;;;;74.03;36.05;;;;;;;6.71;84.01;101852.81;5072425;28;20028;-83
2021/03/02 06:21:42;;;;;;;69.47;34.05;;;;;;;6.66;83.61;101855.56;5072342;28;20028;-84
2021/03/02 06:24:08;;;;;;;73.03;34.95;;;;;;;6.61;83.53;101847.00;5072379;28;20028;-84
2021/03/02 06:26:34;;;;;;;71.30;35.05;;;;;;;6.67;82.38;101841.59;5072402;28;20088;-84
2021/03/02 06:29:11;;;;;;;79.18;36.17;;;;;;;6.51;83.92;101840.31;5072363;28;20036;-84
2021/03/02 06:31:42;;;;;;;77.07;34.65;;;;;;;6.43;84.28;101845.75;5072309;28;20033;-84
2021/03/02 06:34:10;;;;;;;74.43;36.08;;;;;;;6.59;83.46;101848.78;5070976;28;20021;-83
2021/03/02 06:36:38;;;;;;;66.20;32.58;;;;;;;6.56;83.86;101859.34;5054853;28;20029;-84
2021/03/02 06:39:30;;;;;;;66.97;34.25;;;;;;;6.48;83.32;101850.88;5052718;28;20061;-83
2021/03/02 06:42:19;;;;;;;72.57;33.80;;;;;;;6.38;84.13;101854.59;5042371;28;20515;-85
2021/03/02 06:44:51;;;;;;;71.28;34.30;;;;;;;6.47;84.19;101862.19;5055193;28;20521;-83
2021/03/02 06:47:33;;;;;;;65.25;32.40;;;;;;;6.54;83.15;101846.31;5072022;28;20025;-84
2021/03/02 06:49:59;;;;;;;64.93;32.20;;;;;;;6.59;83.44;101856.63;5071973;28;20479;-86
2021/03/02 06:52:25;;;;;;;79.05;36.63;;;;;;;6.35;84.52;101855.56;5035838;28;20033;-86
2021/03/02 06:54:51;;;;;;;69.18;34.00;;;;;;;6.45;83.37;101862.22;5047554;28;20033;-85
2021/03/02 06:57:21;;;;;;;72.03;34.88;;;;;;;6.27;84.43;101862.72;5051845;28;20028;-86
2021/03/02 06:59:55;;;;;;;66.78;32.08;;;;;;;6.43;84.30;101873.59;5052396;28;20017;-86
2021/03/02 07:02:37;;;;;;;81.78;36.58;;;;;;;6.22;84.89;101865.47;5051717;28;20021;-86
2021/03/02 07:05:12;;;;;;;69.38;34.65;;;;;;;6.34;85.08;101872.97;5049791;28;20036;-86
2021/03/02 07:07:56;;;;;;;71.80;34.80;;;;;;;6.27;85.49;101871.41;5033414;28;20020;-85
2021/03/02 07:10:23;;;;;;;81.95;36.75;;;;;;;6.27;84.98;101874.00;5031793;28;20040;-85
2021/03/02 07:12:51;;;;;;;63.53;32.03;;;;;;;6.47;84.96;101875.25;5040271;28;20025;-87
2021/03/02 07:15:17;;;;;;;73.85;33.35;;;;;;;6.53;84.20;101880.28;5051351;28;20017;-85
2021/03/02 07:17:44;;;;;;;72.03;35.90;;;;;;;6.39;84.02;101885.88;5051537;28;20382;-86
2021/03/02 07:20:12;;;;;;;70.18;34.97;;;;;;;6.42;84.09;101877.09;5049670;28;20434;-85
2021/03/02 07:22:39;;;;;;;74.75;36.67;;;;;;;6.45;83.83;101884.88;5051187;28;20041;-87
2021/03/02 07:25:09;;;;;;;75.40;35.75;;;;;;;6.39;84.23;101890.25;5046330;28;20082;-87
2021/03/02 07:27:39;;;;;;;80.28;36.85;;;;;;;6.49;84.08;101894.31;5051468;28;20371;-87
2021/03/02 07:30:06;;;;;;;70.78;34.42;;;;;;;6.45;83.61;101888.31;5043106;28;20033;-87
2021/03/02 07:32:31;;;;;;;69.18;33.45;;;;;;;6.39;83.73;101898.91;5035788;28;20032;-87
2021/03/02 07:34:58;;;;;;;71.22;34.00;;;;;;;6.49;83.71;101896.91;5043540;28;20052;-85
2021/03/02 07:37:24;;;;;;;68.10;31.35;;;;;;;6.37;83.47;101897.25;5047169;28;20047;-85
2021/03/02 07:40:10;;;;;;;65.68;30.38;;;;;;;6.23;82.89;101906.28;5046268;28;20063;-85
2021/03/02 07:42:38;;;;;;;65.13;29.05;;;;;;;6.30;82.91;101893.94;5040057;28;20032;-85
2021/03/02 07:45:06;;;;;;;68.05;30.92;;;;;;;6.27;82.81;101907.94;5036715;28;20514;-85
2021/03/02 07:47:53;;;;;;;62.35;30.80;;;;;;;6.41;82.90;101914.53;5050420;28;20072;-85
2021/03/02 07:50:24;;;;;;;67.93;32.63;;;;;;;6.21;83.72;101925.50;5043334;28;20025;-86
2021/03/02 07:53:24;;;;;;;73.05;32.70;;;;;;;6.42;82.69;101926.69;5044799;28;20025;-83
2021/03/02 07:56:21;;;;;;;70.95;33.22;;;;;;;6.15;83.62;101929.09;5040094;28;20029;-84
2021/03/02 07:59:05;;;;;;;69.15;32.25;;;;;;;6.34;82.69;101922.53;5036638;28;20040;-86
2021/03/02 08:01:31;;;;;;;64.10;31.77;;;;;;;6.32;83.23;101934.75;5034488;28;20030;-84
2021/03/02 08:04:29;;;;;;;68.82;31.98;;;;;;;6.26;81.96;101931.44;5030904;28;20037;-85
2021/03/02 08:07:18;;;;;;;68.88;33.25;;;;;;;6.03;83.58;101937.25;5049155;28;20052;-85
2021/03/02 08:09:44;;;;;;;68.28;32.97;;;;;;;6.26;83.85;101931.44;5049113;28;20025;-83
2021/03/02 08:12:35;;;;;;;69.60;32.53;;;;;;;6.24;83.25;101936.72;5040908;28;20020;-85
2021/03/02 08:15:22;;;;;;;57.25;30.50;;;;;;;6.20;82.66;101929.88;5045639;28;20395;-83
2021/03/02 08:17:48;;;;;;;56.83;29.67;;;;;;;6.48;81.47;101927.38;5037215;28;20074;-84
2021/03/02 08:20:14;;;;;;;60.53;29.10;;;;;;;6.60;82.07;101927.97;5037625;28;20025;-84
2021/03/02 08:22:42;;;;;;;58.30;28.38;;;;;;;6.57;81.80;101936.72;5041575;28;20132;-84
2021/03/02 08:25:24;;;;;;;61.22;28.98;;;;;;;6.57;81.07;101933.25;5038686;28;20307;-84
2021/03/02 08:27:57;;;;;;;57.70;28.80;;;;;;;6.53;82.33;101927.25;5041014;28;20581;-84
2021/03/02 08:30:33;;;;;;;63.08;29.85;;;;;;;6.42;83.05;101926.69;5048213;28;20086;-84
2021/03/02 08:33:02;;;;;;;59.83;29.00;;;;;;;6.57;80.90;101922.81;5037499;28;20108;-84
2021/03/02 08:35:31;;;;;;;65.55;30.08;;;;;;;6.53;80.95;101917.66;5052292;28;20032;-83
2021/03/02 08:38:02;;;;;;;59.50;29.10;;;;;;;6.59;80.37;101936.69;5038135;28;20021;-84
2021/03/02 08:40:30;;;;;;;55.25;30.27;;;;;;;6.57;82.52;101936.72;5039096;28;20475;-84
2021/03/02 08:43:03;;;;;;;58.42;29.85;;;;;;;6.64;81.58;101932.22;5050946;28;20036;-85
2021/03/02 08:45:30;;;;;;;66.32;30.50;;;;;;;6.74;81.19;101936.28;5046162;28;20025;-83
2021/03/02 08:48:13;;;;;;;63.47;30.20;;;;;;;6.54;80.73;101935.06;5041483;28;20017;-83
2021/03/02 08:50:38;;;;;;;;;;;;;;;6.52;81.69;101936.00;5040216;28;20029;-85
2021/03/02 08:53:03;;;;;;;53.88;27.55;;;;;;;6.67;81.61;101938.19;5043367;28;20397;-86
2021/03/02 08:55:38;;;;;;;59.28;28.63;;;;;;;6.73;80.62;101944.97;5042053;28;20028;-83
2021/03/02 08:58:04;;;;;;;55.08;27.60;;;;;;;6.77;80.88;101961.44;5047609;28;20020;-86
2021/03/02 09:00:30;;;;;;;52.15;27.08;;;;;;;6.56;81.14;101942.84;5040368;28;20455;-85
2021/03/02 09:02:55;;;;;;;60.33;27.02;;;;;;;6.49;81.25;101967.38;5042371;28;20128;-87
2021/03/02 09:05:20;;;;;;;54.70;27.45;;;;;;;6.76;80.70;101947.53;5037841;28;20030;-86
2021/03/02 09:08:08;;;;;;;56.42;28.13;;;;;;;6.47;81.08;101946.53;5050573;28;20043;-86
2021/03/02 09:10:34;;;;;;;70.35;35.35;;;;;;;6.39;81.72;101945.88;5051192;28;20086;-86
2021/03/02 09:13:06;;;;;;;60.65;28.92;;;;;;;6.53;81.51;101942.91;5038520;28;20029;-87
2021/03/02 09:15:39;;;;;;;55.80;28.00;;;;;;;6.85;80.19;101949.91;5037175;28;20033;-87
2021/03/02 09:18:18;;;;;;;58.92;28.13;;;;;;;6.89;79.30;101941.06;5034539;28;20491;-87
2021/03/02 09:20:55;;;;;;;56.95;27.40;;;;;;;6.70;80.67;101956.38;5034458;28;20044;-87
2021/03/02 09:23:22;;;;;;;51.08;24.90;;;;;;;6.54;80.13;101945.50;5045766;28;20029;-86
2021/03/02 09:25:51;;;;;;;59.83;28.70;;;;;;;6.66;80.53;101959.97;5040471;28;20033;-86
2021/03/02 09:28:18;;;;;;;57.42;28.13;;;;;;;6.75;79.21;101951.03;5033952;28;20070;-86
2021/03/02 09:30:44;;;;;;;58.50;28.85;;;;;;;6.77;78.83;101964.88;5035049;28;20029;-86
2021/03/02 09:33:12;;;;;;;65.78;30.20;;;;;;;6.77;80.34;101956.22;5036545;28;20023;-86
2021/03/02 09:35:38;;;;;;;63.55;29.92;;;;;;;6.80;80.17;101950.91;5044257;28;20025;-86
2021/03/02 09:38:03;;;;;;;67.70;29.15;;;;;;;6.96;79.15;101960.03;5033891;28;20037;-87
2021/03/02 09:40:42;;;;;;;62.17;31.15;;;;;;;7.07;80.11;101955.38;5038537;28;20592;-85
2021/03/02 09:43:07;;;;;;;55.72;27.30;;;;;;;7.39;78.83;101953.56;5040441;28;20044;-85
2021/03/02 09:45:33;;;;;;;60.90;26.52;;;;;;;7.42;77.25;101953.47;5044776;28;20056;-84
2021/03/02 09:48:01;;;;;;;56.15;26.92;;;;;;;7.08;78.04;101956.22;5039189;28;20357;-87
2021/03/02 09:50:38;;;;;;;55.72;28.20;;;;;;;7.27;77.97;101956.56;5035844;28;20029;-85
2021/03/02 09:53:17;;;;;;;53.63;27.83;;;;;;;7.27;78.07;101959.16;5044372;28;20032;-84
2021/03/02 09:55:45;;;;;;;55.13;27.08;;;;;;;7.38;77.51;101944.00;5050595;28;20021;-84
2021/03/02 09:58:21;;;;;;;54.10;27.10;;;;;;;7.60;77.06;101938.97;5039403;28;20029;-86
2021/03/02 10:00:46;;;;;;;58.33;28.42;;;;;;;7.43;77.65;101952.56;5050736;28;20035;-86
2021/03/02 10:03:18;;;;;;;58.80;28.85;;;;;;;7.61;76.69;101961.59;5047022;28;20497;-88
2021/03/02 10:05:53;;;;;;;57.78;28.13;;;;;;;7.62;76.30;101967.69;5051815;28;20020;-87
2021/03/02 10:08:31;;;;;;;59.17;28.00;;;;;;;7.72;75.75;101959.53;5039765;28;20033;-86
2021/03/02 10:11:01;;;;;;;56.75;28.05;;;;;;;7.53;76.81;101961.00;5032747;28;20163;-85
2021/03/02 10:13:34;;;;;;;63.13;29.58;;;;;;;7.47;77.28;101975.09;5037375;28;20063;-85
2021/03/02 10:16:17;;;;;;;56.92;28.67;;;;;;;7.71;76.03;101967.41;5037927;28;20029;-84
2021/03/02 10:18:46;;;;;;;55.70;27.80;;;;;;;7.77;76.42;101962.00;5046534;28;20032;-82
2021/03/02 10:21:12;;;;;;;64.40;30.70;;;;;;;7.71;76.41;101955.19;5052393;28;20549;-83
2021/03/02 10:23:49;;;;;;;62.67;30.48;;;;;;;7.81;77.53;101949.69;5038050;28;20041;-82
2021/03/02 10:26:32;;;;;;;55.25;28.38;;;;;;;8.09;75.56;101949.63;5032682;28;20108;-83
2021/03/02 10:28:58;;;;;;;62.38;29.27;;;;;;;8.07;75.82;101947.06;5032515;28;20032;-83
2021/03/02 10:31:24;;;;;;;68.43;33.38;;;;;;;8.13;75.45;101948.63;5049079;28;20033;-89
2021/03/02 10:33:50;;;;;;;63.33;30.30;;;;;;;8.40;74.90;101948.63;5050755;28;20029;-90
2021/03/02 10:36:29;;;;;;;62.20;29.17;;;;;;;8.40;75.45;101948.63;5051302;28;20028;-89
2021/03/02 10:38:57;;;;;;;57.83;29.50;;;;;;;8.39;74.25;101950.34;5032119;28;20028;-88
2021/03/02 10:41:24;;;;;;;60.03;29.58;;;;;;;8.34;75.57;101953.16;5032284;28;20088;-89
2021/03/02 10:43:50;;;;;;;60.00;31.00;;;;;;;8.24;75.20;101943.91;5032258;28;20033;-88
2021/03/02 10:46:20;;;;;;;68.90;31.58;;;;;;;8.41;75.12;101940.75;5032497;28;20029;-89
2021/03/02 10:48:46;;;;;;;58.05;30.63;;;;;;;8.25;74.69;101955.22;5052027;28;20159;-87
2021/03/02 10:51:16;;;;;;;58.25;30.60;;;;;;;8.06;74.08;101948.00;5052127;28;20489;-87
2021/03/02 10:53:42;;;;;;;59.40;31.10;;;;;;;8.29;74.33;101955.09;5051870;28;20033;-87
2021/03/02 10:56:07;;;;;;;60.30;31.00;;;;;;;7.82;76.36;101952.25;5050855;28;20028;-87
2021/03/02 10:58:33;;;;;;;55.28;28.77;;;;;;;8.05;75.89;101950.66;5046408;28;20112;-87
2021/03/02 11:00:59;;;;;;;56.33;29.75;;;;;;;8.03;74.23;101955.06;5036719;28;20035;-87
2021/03/02 11:03:25;;;;;;;51.80;26.67;;;;;;;8.48;73.37;101959.72;5041304;28;20025;-87
2021/03/02 11:05:51;;;;;;;52.83;28.52;;;;;;;8.04;76.07;101956.81;5031921;28;20025;-87
2021/03/02 11:08:17;;;;;;;61.40;29.85;;;;;;;8.16;75.43;101948.53;5031697;28;20064;-87
2021/03/02 11:10:43;;;;;;;54.08;29.50;;;;;;;8.27;74.76;101938.56;5031708;28;20075;-87
2021/03/02 11:13:08;;;;;;;56.80;28.10;;;;;;;8.61;73.35;101934.81;5035470;28;20033;-87
2021/03/02 11:15:34;;;;;;;54.83;28.88;;;;;;;8.46;73.79;101946.66;5049245;28;20021;-87
2021/03/02 11:17:59;;;;;;;61.70;31.23;;;;;;;8.66;73.44;101943.34;5050241;28;20036;-87
2021/03/02 11:20:24;;;;;;;53.08;28.45;;;;;;;8.85;72.77;101948.81;5051622;28;20052;-87
2021/03/02 11:22:50;;;;;;;57.33;30.50;;;;;;;8.87;72.99;101951.38;5050181;28;20029;-87
2021/03/02 11:25:18;;;;;;;56.65;29.48;;;;;;;8.75;72.55;101931.72;5050254;28;20073;-88